Latest Coastal Weather Observations for Lucinda

IDQ60701

Issued at 10:02 pm EST Sunday 17 December 2017 (issued every 10 minutes, with the page automatically refreshed every 10 minutes)

About coastal observations | Map of coastal stations | Coastal observations for QLD | Marine services | Other Formats
Station Details ID: 032141 Name: LUCINDA POINT Lat: -18.52 Lon: 146.39 Height: 10.0 m
Data from the previous 72 hours. | See also: Recent months at Lucinda
Date/Time
EST
Temp
°C
Wind Pressure Rain since
9am
mm
Weather Cloud Vis
km
Sea
Height
m
Swell
Dir  Spd
kts
Gust
kts
hPa Trend Height
m
Period
s
Dir
17/10:00pm 27.2 ESE 11 19 1011.4 - 0.0 - - - - - - -
17/09:30pm 27.2 ESE 11 18 1011.3 - 0.0 - - - - - - -
17/09:00pm 27.4 ESE 11 17 1011.3 - 0.0 - - - - - - -
17/08:30pm 27.3 ESE 12 17 1011.0 - 0.0 - - - - - - -
17/08:00pm 27.5 ESE 12 18 1010.6 - 0.0 - - - - - - -
17/07:30pm 27.6 ESE 12 17 1010.5 - 0.0 - - - - - - -
17/07:00pm 27.5 ESE 12 16 1010.1 - 0.0 - - - - - - -
17/06:30pm 27.7 ESE 12 16 1009.9 - 0.0 - - - - - - -
17/06:00pm 27.6 ESE 12 15 1009.7 - 0.0 - - - - - - -
17/05:30pm 27.8 ESE 11 17 1009.6 - 0.0 - - - - - - -
17/05:00pm 28.3 ESE 12 17 1009.6 - 0.0 - - - - - - -
17/04:30pm 28.9 ESE 10 15 1009.4 - 0.0 - - - - - - -
17/04:00pm 28.7 ESE 11 17 1009.5 - 0.0 - - - - - - -
17/03:30pm 28.8 ESE 11 19 1009.6 - 0.0 - - - - - - -
17/03:00pm 29.0 ESE 9 17 1009.9 - 0.0 - - - - - - -
17/02:30pm 28.9 ESE 9 16 1010.2 - 0.0 - - - - - - -
17/02:00pm 29.0 S 8 14 1010.4 - 0.0 - - - - - - -
17/01:30pm 28.5 SE 10 16 1010.8 - 0.0 - - - - - - -
17/01:00pm 28.4 SE 9 14 1011.0 - 0.0 - - - - - - -
17/12:30pm 28.7 SE 9 15 1011.3 - 0.0 - - - - - - -
17/12:00pm 28.3 SE 8 13 1011.3 - 0.0 - - - - - - -
17/11:30am 28.9 ESE 8 13 1011.7 - 0.0 - - - - - - -
17/11:00am 28.8 SE 10 16 1011.8 - 0.0 - - - - - - -
17/10:30am 28.4 SE 11 17 1011.9 - 0.0 - - - - - - -
17/10:00am 28.6 SE 12 18 1011.9 - 0.0 - - - - - - -
17/09:30am 28.5 SE 11 18 1012.0 - 0.0 - - - - - - -
17/09:00am 28.4 ESE 10 16 1012.0 - 0.0 - - - - - - -
17/08:30am 28.5 ESE 11 15 1011.9 - 0.0 - - - - - - -
17/08:00am 28.3 SE 10 16 1011.8 - 0.0 - - - - - - -
17/07:30am 27.8 ESE 10 16 1011.7 - 0.0 - - - - - - -
17/07:00am 27.8 SE 8 15 1011.4 - 0.0 - - - - - - -
17/06:30am 27.4 SE 9 14 1010.8 - 0.0 - - - - - - -
17/06:00am 27.1 SE 10 14 1010.3 - 0.0 - - - - - - -
17/05:30am 27.0 SE 9 16 1010.0 - 0.0 - - - - - - -
17/05:00am 27.2 ESE 8 14 1009.7 - 0.0 - - - - - - -
17/04:30am 27.2 SE 8 13 1009.5 - 0.0 - - - - - - -
17/04:00am 27.1 ESE 7 12 1009.4 - 0.0 - - - - - - -
17/03:30am 27.3 SSE 7 12 1009.4 - 0.0 - - - - - - -
17/03:00am 27.2 ESE 7 11 1009.4 - 0.0 - - - - - - -
17/02:30am 27.0 SE 9 14 1009.6 - 0.0 - - - - - - -
17/02:00am 27.1 SE 8 11 1010.0 - 0.0 - - - - - - -
17/01:30am 27.4 SE 8 11 1010.3 - 0.0 - - - - - - -
17/01:00am 27.2 ESE 9 14 1010.5 - 0.0 - - - - - - -
17/12:30am 27.4 ESE 8 13 1010.8 - 0.0 - - - - - - -
17/12:00am 27.5 ESE 9 14 1011.1 - 0.0 - - - - - - -
 
Date/Time
EST
Temp
°C
Wind Pressure Rain since
9am
mm
Weather Cloud Vis
km
Sea
Height
m
Swell
Dir  Spd
kts
Gust
kts
hPa Trend Height
m
Period
s
Dir
16/11:30pm 27.3 ESE 11 16 1011.2 - 0.0 - - - - - - -
16/11:00pm 27.3 ESE 12 16 1011.5 - 0.0 - - - - - - -
16/10:30pm 27.5 ESE 11 17 1011.5 - 0.0 - - - - - - -
16/10:00pm 27.5 ESE 12 16 1011.6 - 0.0 - - - - - - -
16/09:30pm 27.6 ESE 11 17 1011.3 - 0.0 - - - - - - -
16/09:00pm 27.4 ESE 10 15 1011.0 - 0.0 - - - - - - -
16/08:30pm 27.5 ESE 11 15 1010.8 - 0.0 - - - - - - -
16/08:00pm 27.5 E 11 15 1010.8 - 0.0 - - - - - - -
16/07:30pm 27.4 E 12 16 1010.6 - 0.0 - - - - - - -
16/07:00pm 27.6 E 14 17 1010.4 - 0.0 - - - - - - -
16/06:30pm 27.1 ESE 13 17 1010.3 - 0.0 - - - - - - -
16/06:00pm 27.2 ESE 15 19 1009.9 - 0.0 - - - - - - -
16/05:30pm 28.7 ESE 13 20 1009.4 - 0.0 - - - - - - -
16/05:00pm 28.6 ESE 11 17 1009.2 - 0.0 - - - - - - -
16/04:30pm 28.5 ESE 12 17 1009.1 - 0.0 - - - - - - -
16/04:00pm 28.7 SE 8 15 1009.0 - 0.0 - - - - - - -
16/03:30pm 28.6 SE 9 14 1009.1 - 0.0 - - - - - - -
16/03:00pm 28.9 SSE 8 11 1009.2 - 0.0 - - - - - - -
16/02:30pm 29.2 SE 7 11 1009.7 - 0.0 - - - - - - -
16/02:00pm 29.1 SE 7 11 1010.1 - 0.0 - - - - - - -
16/01:30pm 29.2 SE 7 12 1010.4 - 0.0 - - - - - - -
16/01:00pm 29.5 SE 7 11 1010.7 - 0.0 - - - - - - -
16/12:30pm 29.7 SE 7 11 1011.0 - 0.0 - - - - - - -
16/12:00pm 29.8 SE 6 10 1011.3 - 0.0 - - - - - - -
16/11:30am 29.8 ESE 6 9 1011.7 - 0.0 - - - - - - -
16/11:00am 29.4 SE 6 12 1011.9 - 0.0 - - - - - - -
16/10:30am 29.2 SE 6 11 1012.1 - 0.0 - - - - - - -
16/10:00am 29.3 SE 6 11 1012.2 - 0.0 - - - - - - -
16/09:30am 29.4 SE 7 9 1012.2 - 0.0 - - - - - - -
16/09:00am 29.5 ESE 6 8 1012.2 - 0.0 - - - - - - -
16/08:30am 27.5 S 5 6 1012.1 - 0.0 - - - - - - -
16/08:00am 26.4 SW 7 9 1012.0 - 0.0 - - - - - - -
16/07:30am 27.8 W 2 5 1011.8 - 0.0 - - - - - - -
16/07:00am 28.0 ESE 5 7 1011.4 - 0.0 - - - - - - -
16/06:30am 27.5 SE 6 10 1011.1 - 0.0 - - - - - - -
16/06:00am 27.2 ESE 6 8 1010.8 - 0.0 - - - - - - -
16/05:30am 26.9 SE 7 12 1010.4 - 0.0 - - - - - - -
16/05:00am 26.9 SE 7 11 1010.0 - 0.0 - - - - - - -
16/04:30am 26.8 ESE 7 12 1009.5 - 0.0 - - - - - - -
16/04:00am 26.9 SE 7 11 1009.4 - 0.0 - - - - - - -
16/03:30am 26.7 ESE 7 11 1009.3 - 0.0 - - - - - - -
16/03:00am 26.8 ESE 7 11 1009.4 - 0.0 - - - - - - -
16/02:30am 26.9 ESE 8 12 1009.5 - 0.0 - - - - - - -
16/02:00am 27.0 ESE 8 13 1009.5 - 0.0 - - - - - - -
16/01:30am 27.0 ESE 7 11 1009.7 - 0.0 - - - - - - -
16/01:00am 27.0 ESE 8 11 1010.0 - 0.0 - - - - - - -
16/12:30am 27.1 SE 8 13 1010.2 - 0.0 - - - - - - -
16/12:00am 27.0 ESE 10 16 1010.4 - 0.0 - - - - - - -
 
Date/Time
EST
Temp
°C
Wind Pressure Rain since
9am
mm
Weather Cloud Vis
km
Sea
Height
m
Swell
Dir  Spd
kts
Gust
kts
hPa Trend Height
m
Period
s
Dir
15/11:30pm 27.3 E 10 13 1010.8 - 0.0 - - - - - - -
15/11:00pm 27.5 E 10 13 1010.9 - 0.0 - - - - - - -
15/10:30pm 27.4 E 9 12 1011.1 - 0.0 - - - - - - -
15/10:00pm 27.3 E 9 13 1010.9 - 0.0 - - - - - - -
15/09:30pm 27.2 E 9 12 1010.5 - 0.0 - - - - - - -
15/09:00pm 27.3 ESE 9 13 1010.1 - 0.0 - - - - - - -
15/08:30pm 27.4 ESE 9 13 1009.8 - 0.0 - - - - - - -
15/08:00pm 27.4 E 9 11 1009.6 - 0.0 - - - - - - -
15/07:30pm 27.3 E 9 13 1009.0 - 0.0 - - - - - - -
15/07:00pm 27.3 E 8 11 1008.5 - 0.0 - - - - - - -
15/06:30pm 27.4 E 8 10 1008.2 - 0.0 - - - - - - -
15/06:00pm 27.8 ENE 9 12 1007.9 - 0.0 - - - - - - -
15/05:30pm 27.7 ENE 10 13 1007.7 - 0.0 - - - - - - -
15/05:00pm 27.5 ENE 10 13 1007.5 - 0.0 - - - - - - -
15/04:30pm 27.8 E 10 13 1007.5 - 0.0 - - - - - - -
15/04:00pm 27.9 E 9 13 1007.4 - 0.0 - - - - - - -
15/03:30pm 27.9 ENE 10 13 1007.3 - 0.0 - - - - - - -
15/03:00pm 27.9 ENE 9 13 1007.5 - 0.0 - - - - - - -
15/02:30pm 28.1 E 10 13 1007.7 - 0.0 - - - - - - -
15/02:00pm 28.1 E 11 14 1007.9 - 0.0 - - - - - - -
15/01:30pm 28.4 E 10 13 1008.3 - 0.0 - - - - - - -
15/01:00pm 28.5 E 9 13 1008.5 - 0.0 - - - - - - -
15/12:30pm 28.1 E 8 10 1008.9 - 0.0 - - - - - - -
15/12:00pm 28.7 E 6 11 1009.2 - 0.0 - - - - - - -
15/11:30am 29.3 SE 6 9 1009.4 - 0.0 - - - - - - -
15/11:00am 29.2 ESE 6 9 1009.5 - 0.0 - - - - - - -
15/10:30am 29.2 SE 7 11 1009.6 - 0.0 - - - - - - -
15/10:00am 29.2 SE 5 8 1010.0 - 0.0 - - - - - - -
15/09:30am 28.7 SSE 5 8 1010.2 - 0.0 - - - - - - -
15/09:00am 28.4 SSE 5 8 1010.3 - 0.0 - - - - - - -
15/08:30am 28.1 SE 5 9 1010.2 - 0.0 - - - - - - -
15/08:00am 28.1 S 4 6 1010.1 - 0.0 - - - - - - -
15/07:30am 26.1 SW 5 6 1010.1 - 0.0 - - - - - - -
15/07:00am 26.4 WSW 5 6 1009.9 - 0.0 - - - - - - -
15/06:30am 25.7 WSW 5 7 1009.7 - 0.0 - - - - - - -
15/06:00am 26.8 E 4 6 1009.4 - 0.0 - - - - - - -
15/05:30am 26.4 SE 5 8 1009.0 - 0.0 - - - - - - -
15/05:00am 26.5 SE 5 8 1008.9 - 0.0 - - - - - - -
15/04:30am 26.6 ESE 5 7 1008.8 - 0.0 - - - - - - -
15/04:00am 26.8 ESE 6 9 1008.8 - 0.0 - - - - - - -
15/03:30am 26.5 ESE 7 11 1008.6 - 0.0 - - - - - - -
15/03:00am 26.8 E 7 10 1008.6 - 0.0 - - - - - - -
15/02:30am 26.5 E 7 9 1008.7 - 0.0 - - - - - - -
15/02:00am 26.7 ESE 9 11 1008.8 - 0.0 - - - - - - -
15/01:30am 26.8 ESE 7 13 1008.7 - 0.0 - - - - - - -
15/01:00am 26.9 E 9 11 1009.0 - 0.0 - - - - - - -
15/12:30am 26.8 E 9 12 1009.3 - 0.0 - - - - - - -
15/12:00am 27.1 ENE 9 12 1009.6 - 0.0 - - - - - - -
 
Date/Time
EST
Temp
°C
Wind Pressure Rain since
9am
mm
Weather Cloud Vis
km
Sea
Height
m
Swell
Dir  Spd
kts
Gust
kts
hPa Trend Height
m
Period
s
Dir
14/11:30pm 27.0 E 8 10 1010.1 - 0.0 - - - - - - -
14/11:00pm 27.2 E 7 9 1010.2 - 0.0 - - - - - - -
14/10:30pm 27.1 ENE 7 9 1010.3 - 0.0 - - - - - - -

Other Formats:

Comma delimited format used in spreadsheet applications
http://www.bom.gov.au/fwo/IDQ60701/IDQ60701.94295.axf

JavaScript Object Notation format (JSON) in row-major order
http://www.bom.gov.au/fwo/IDQ60701/IDQ60701.94295.json